Bookmark and Share
Track history (hours):
 

Hyacinth

Last reported at 2013-Apr-03 02:28 UTC. Time now 2014-Apr-17 09:44 UTC.
Position N 22°36' E 120°17'.
Warning: this ship's position is years out of date!

Length 126 m; draft 7.2 m.

Type: Ship (hazmat cat B). MMSI: 477264200.

NotesDate/timePositionNaut miles runAvg speedWind from/ knotsBaromVisibWave heightAir tempDewpointWater temp
2013-Apr-03 02:28N 22°36' E 120°17'0 0.0
2013-Apr-03 01:33N 22°36' E 120°17'0 0.0
2013-Apr-03 00:27N 22°36' E 120°17'0 0.0
2013-Apr-02 23:30N 22°36' E 120°17'0 0.0
2013-Apr-02 22:34N 22°36' E 120°17'0 0.0
2013-Apr-02 21:34N 22°36' E 120°17'0 0.0
2013-Apr-02 20:34N 22°36' E 120°17'0 0.0
2013-Apr-02 19:33N 22°36' E 120°17'0 0.0
2013-Apr-02 18:34N 22°36' E 120°17'0 0.0
2013-Apr-02 17:34N 22°36' E 120°17'0 0.0
2013-Apr-02 16:34N 22°36' E 120°17'0 0.0
2013-Apr-02 15:30N 22°36' E 120°17'0 0.0
2013-Apr-02 14:33N 22°36' E 120°17'0 0.0
2013-Apr-02 13:33N 22°36' E 120°17'0 0.0
2013-Apr-02 12:33N 22°36' E 120°17'0 0.0
2013-Apr-02 11:33N 22°36' E 120°17'0 0.0
2013-Apr-02 10:33N 22°36' E 120°17'0 0.0
2013-Apr-02 09:34N 22°36' E 120°17'0 0.0
2013-Apr-02 08:33N 22°36' E 120°17'0 0.0
2013-Apr-02 07:34N 22°36' E 120°17'0 0.0
2013-Apr-02 06:34N 22°36' E 120°17'0 0.0
2013-Apr-02 04:33N 22°36' E 120°17'0 0.0
2013-Apr-02 03:34N 22°36' E 120°17'0 0.0
2013-Apr-02 02:31N 22°36' E 120°17'0 0.0
2013-Apr-02 01:33N 22°36' E 120°17'0 0.0
2013-Apr-02 00:33N 22°36' E 120°17'4 4.1
2013-Apr-01 23:33N 22°37' E 120°13'2 2.1
2013-Apr-01 22:33N 22°35' E 120°13'0 0.0
2013-Apr-01 21:31N 22°35' E 120°13'0 0.0
2013-Apr-01 20:31N 22°35' E 120°13'0 0.0
2013-Apr-01 19:31N 22°35' E 120°13'0 0.0
2013-Apr-01 18:31N 22°35' E 120°13'0 0.1
2013-Apr-01 17:31N 22°35' E 120°13'0 0.1
2013-Apr-01 16:31N 22°35' E 120°13'0 0.0
2013-Apr-01 15:31N 22°35' E 120°13'0 0.0
2013-Apr-01 14:31N 22°35' E 120°13'0 0.1
2013-Apr-01 13:31N 22°35' E 120°13'5 5.1
2013-Apr-01 12:33N 22°39' E 120°10'1312.8
2013-Apr-01 11:33N 22°49' E 120°02'12012.8
2013-Apr-01 02:14N 24°37' E 119°05'811.8
2013-Apr-01 01:33N 24°42' E 119°12'3014.2
2013-Mar-31 23:27N 25°01' E 119°37'5913.9
2013-Mar-31 19:12N 25°49' E 120°15'914.4
2013-Mar-31 18:33N 25°57' E 120°21'1514.6
2013-Mar-31 17:32N 26°10' E 120°28'1514.8
2013-Mar-31 16:33N 26°23' E 120°35'1515.0
2013-Mar-31 15:33N 26°37' E 120°42'1514.9
2013-Mar-31 14:33N 26°50' E 120°50'1514.8
2013-Mar-31 13:33N 27°02' E 120°59'1514.6
2013-Mar-31 12:33N 27°14' E 121°08'1414.4
2013-Mar-31 11:33N 27°26' E 121°17'1414.1
2013-Mar-31 10:34N 27°38' E 121°25'1414.1
2013-Mar-31 09:33N 27°50' E 121°35'1413.9
2013-Mar-31 08:33N 28°01' E 121°43'1514.6
2013-Mar-31 07:33N 28°14' E 121°52'1414.4
2013-Mar-31 06:33N 28°25' E 122°02'2914.4
2013-Mar-31 04:33N 28°49' E 122°20'1413.9
2013-Mar-31 03:33N 29°01' E 122°29'1413.5
2013-Mar-31 02:33N 29°12' E 122°37'1413.7
2013-Mar-31 01:34N 29°23' E 122°46'1414.1
2013-Mar-31 00:34N 29°37' E 122°49'1515.1
2013-Mar-30 23:33N 29°52' E 122°52'1515.3
2013-Mar-30 22:34N 30°06' E 122°60'1515.3
2013-Mar-30 21:33N 30°21' E 123°04'1515.2
2013-Mar-30 20:33N 30°36' E 123°00'1514.7
2013-Mar-30 19:33N 30°50' E 122°56'1414.1
2013-Mar-30 18:33N 31°04' E 122°53'1312.9
2013-Mar-30 17:34N 31°17' E 122°50'1312.5
2013-Mar-30 16:33N 31°28' E 122°44'1212.1
2013-Mar-30 15:33N 31°39' E 122°38'1313.0
2013-Mar-30 14:34N 31°52' E 122°37'1515.1
2013-Mar-30 13:33N 32°06' E 122°43'1615.7
2013-Mar-30 12:34N 32°21' E 122°50'25214.0
2013-Mar-29 18:34N 36°33' E 122°54'1414.0
2013-Mar-29 17:33N 36°47' E 122°48'1615.6
2013-Mar-29 16:33N 37°02' E 122°48'1615.8
2013-Mar-29 15:33N 37°18' E 122°48'1413.7
2013-Mar-29 14:33N 37°31' E 122°42'1313.2
2013-Mar-29 13:33N 37°37' E 122°27'1312.9
2013-Mar-29 12:33N 37°43' E 122°13'1413.0
2013-Mar-29 11:30N 37°50' E 121°58'1313.5
2013-Mar-29 10:32N 37°59' E 121°46'17813.7
2013-Mar-28 21:33N 38°53' E 118°09'1211.6
2013-Mar-28 20:33N 38°57' E 117°55'8 7.6
2013-Mar-28 19:34N 38°58' E 117°46'0 0.0
2013-Mar-28 18:33N 38°58' E 117°46'0 0.0
2013-Mar-28 17:27N 38°58' E 117°46'0 0.0
2013-Mar-28 16:33N 38°58' E 117°46'0 0.0
2013-Mar-28 15:24N 38°58' E 117°46'0 0.0
2013-Mar-28 14:33N 38°58' E 117°46'0 0.0
2013-Mar-28 13:33N 38°58' E 117°46'0 0.0
2013-Mar-28 12:33N 38°58' E 117°46'0 0.0
2013-Mar-28 11:33N 38°58' E 117°46'0 0.0
2013-Mar-28 10:33N 38°58' E 117°46'0 0.0
2013-Mar-28 09:33N 38°58' E 117°46'0 0.0
2013-Mar-28 08:27N 38°58' E 117°46'0 0.0
2013-Mar-28 07:33N 38°58' E 117°46'0 0.0
2013-Mar-28 06:30N 38°58' E 117°46'0 0.0
2013-Mar-28 04:33N 38°58' E 117°46'0 0.0
2013-Mar-28 03:33N 38°58' E 117°46'0 0.0
2013-Mar-28 02:33N 38°58' E 117°46'0 0.0
2013-Mar-28 01:33N 38°58' E 117°46'0 0.0
2013-Mar-28 00:27N 38°58' E 117°46'0 0.0
2013-Mar-27 23:33N 38°58' E 117°46'0 0.0
2013-Mar-27 22:33N 38°58' E 117°46'0 0.0
2013-Mar-27 21:33N 38°58' E 117°46'0 0.0
2013-Mar-27 20:30N 38°58' E 117°46'0 0.0
2013-Mar-27 19:33N 38°58' E 117°46'0 0.0
2013-Mar-27 18:33N 38°58' E 117°46'0 0.0
2013-Mar-27 17:33N 38°58' E 117°46'0 0.0
2013-Mar-27 16:33N 38°58' E 117°46'0 0.0
2013-Mar-27 15:27N 38°58' E 117°46'0 0.0
2013-Mar-27 14:33N 38°58' E 117°46'0 0.0
2013-Mar-27 13:33N 38°58' E 117°46'0 0.0
2013-Mar-27 12:33N 38°58' E 117°46'0 0.0
2013-Mar-27 11:33N 38°58' E 117°46'0 0.0
2013-Mar-27 10:33N 38°58' E 117°46'8 8.3
2013-Mar-27 09:33N 38°57' E 117°56'6 5.1
2013-Mar-27 08:27N 38°53' E 118°02'0 0.1
2013-Mar-27 07:33N 38°54' E 118°02'0 0.0
2013-Mar-27 06:33N 38°53' E 118°02'0 0.0
2013-Mar-27 04:33N 38°53' E 118°02'0 0.0
2013-Mar-27 03:33N 38°53' E 118°02'0 0.0
2013-Mar-27 02:33N 38°53' E 118°02'0 0.1
2013-Mar-27 01:33N 38°53' E 118°02'0 0.0
2013-Mar-27 00:24N 38°53' E 118°02'0 0.0
2013-Mar-26 23:33N 38°53' E 118°02'0 0.0
2013-Mar-26 22:30N 38°53' E 118°02'0 0.0
2013-Mar-26 21:30N 38°53' E 118°02'0 0.0
2013-Mar-26 20:30N 38°54' E 118°02'0 0.1
2013-Mar-26 19:33N 38°54' E 118°02'0 0.0
2013-Mar-26 18:33N 38°54' E 118°02'0 0.0
2013-Mar-26 17:33N 38°53' E 118°02'0 0.0
2013-Mar-26 16:33N 38°53' E 118°02'0 0.0
2013-Mar-26 15:30N 38°54' E 118°02'0 0.0
2013-Mar-26 14:30N 38°54' E 118°02'0 0.1
2013-Mar-26 13:33N 38°54' E 118°02'0 0.0
2013-Mar-26 12:30N 38°53' E 118°02'0 0.0
2013-Mar-26 11:27N 38°53' E 118°02'0 0.0
2013-Mar-26 10:33N 38°53' E 118°02'0 0.0
2013-Mar-26 09:30N 38°53' E 118°02'0 0.0
2013-Mar-26 08:33N 38°53' E 118°02'0 0.1
2013-Mar-26 07:33N 38°54' E 118°02'0 0.0
2013-Mar-26 06:33N 38°54' E 118°02'0 0.0
2013-Mar-26 05:33N 38°54' E 118°02'0 0.0
2013-Mar-26 04:30N 38°54' E 118°02'0 0.0
2013-Mar-26 03:33N 38°54' E 118°02'0 0.0
2013-Mar-26 02:33N 38°54' E 118°02'0 0.1
2013-Mar-26 01:30N 38°54' E 118°02'0 0.0
2013-Mar-26 00:30N 38°54' E 118°02'0 0.0
2013-Mar-25 23:33N 38°53' E 118°02'0 0.0
2013-Mar-25 22:33N 38°53' E 118°02'0 0.0
2013-Mar-25 21:30N 38°53' E 118°02'0 0.0
2013-Mar-25 20:33N 38°53' E 118°02'0 0.1
2013-Mar-25 19:33N 38°54' E 118°02'0 0.0
2013-Mar-25 18:33N 38°54' E 118°02'0 0.0
2013-Mar-25 17:30N 38°54' E 118°02'0 0.0
2013-Mar-25 16:30N 38°54' E 118°02'0 0.0
2013-Mar-25 15:30N 38°54' E 118°02'0 0.0
2013-Mar-25 14:30N 38°54' E 118°02'0 0.0
2013-Mar-25 13:33N 38°54' E 118°02'0 0.0
2013-Mar-25 12:24N 38°54' E 118°02'0 0.1
2013-Mar-25 11:33N 38°53' E 118°02'3 3.4
2013-Mar-25 10:34N 38°53' E 118°06'21712.6
2013-Mar-24 17:23N 37°46' E 122°29'1112.2
2013-Mar-24 16:27N 37°39' E 122°41'3210.5
2013-Mar-24 13:25N 37°09' E 122°53'1011.0
2013-Mar-24 12:28N 36°59' E 122°54'1111.5
2013-Mar-24 11:33N 36°48' E 122°54'  

Dump ship's entire track history

sailing weather and tide predictions

Hyacinth — VRFB9 — position and weather